Time;durP1;ratioP1;P1;durP2;ratioP2;P2;SDS_P1;SDS_P2;PMS_P1;PMS_P2;Temp;Humidity;BMP_temperature;BMP_pressure;BME280_temperature;BME280_humidity;BME280_pressure;Samples;Min_cycle;Max_cycle;Signal;HPM_P1;HPM_P2
2024/02/25 00:00:21;;;;;;;14.37;6.40;;;1.00;99.90;;;;;;5031993;28;20195;-53
2024/02/25 00:02:47;;;;;;;15.60;6.67;;;1.00;99.90;;;;;;5031794;28;20290;-53
2024/02/25 00:05:12;;;;;;;14.57;6.20;;;1.00;99.90;;;;;;5035908;28;20245;-53
2024/02/25 00:07:38;;;;;;;12.67;5.63;;;1.00;99.90;;;;;;5043415;28;20210;-54
2024/02/25 00:10:04;;;;;;;23.40;9.67;;;1.00;99.90;;;;;;5042782;28;20649;-54
2024/02/25 00:12:29;;;;;;;14.20;6.33;;;0.90;99.90;;;;;;5043422;28;20751;-52
2024/02/25 00:14:55;;;;;;;20.60;9.23;;;0.80;99.90;;;;;;5043505;28;20180;-52
2024/02/25 00:17:21;;;;;;;15.80;7.30;;;0.80;99.90;;;;;;5046229;28;20195;-53
2024/02/25 00:19:46;;;;;;;16.30;7.40;;;0.80;99.90;;;;;;5048416;28;20222;-53
2024/02/25 00:22:12;;;;;;;16.47;7.10;;;0.70;99.90;;;;;;5031561;28;20203;-56
2024/02/25 00:24:38;;;;;;;12.37;6.70;;;0.60;99.90;;;;;;5047283;28;20666;-53
2024/02/25 00:27:04;;;;;;;17.97;7.60;;;0.60;99.90;;;;;;5036259;28;20191;-52
2024/02/25 00:29:30;;;;;;;15.57;6.90;;;0.60;99.90;;;;;;5042600;28;20215;-51
2024/02/25 00:31:55;;;;;;;10.83;5.97;;;0.60;99.90;;;;;;5041635;28;20209;-54
2024/02/25 00:34:21;;;;;;;11.77;5.87;;;0.70;99.90;;;;;;5031519;28;20221;-53
2024/02/25 00:36:48;;;;;;;12.23;6.03;;;0.80;99.90;;;;;;5039191;28;20187;-53
2024/02/25 00:39:17;;;;;;;13.90;6.10;;;0.90;99.90;;;;;;5039029;28;20187;-50
2024/02/25 00:41:43;;;;;;;23.80;8.37;;;0.90;99.90;;;;;;5038767;28;20207;-53
2024/02/25 00:44:09;;;;;;;15.07;7.73;;;1.00;99.90;;;;;;5034603;28;20720;-52
2024/02/25 00:46:35;;;;;;;13.63;7.47;;;1.00;99.90;;;;;;5035730;28;20188;-54
2024/02/25 00:49:00;;;;;;;12.70;7.23;;;1.00;99.90;;;;;;5032799;28;20204;-55
2024/02/25 00:51:26;;;;;;;23.17;9.43;;;1.00;99.90;;;;;;5040139;28;20214;-55
2024/02/25 00:53:52;;;;;;;15.57;6.43;;;1.00;99.90;;;;;;5034378;28;20562;-51
2024/02/25 00:56:17;;;;;;;17.80;6.40;;;1.10;99.90;;;;;;5038104;28;20190;-51
2024/02/25 00:58:43;;;;;;;17.17;6.63;;;1.10;99.90;;;;;;5030540;28;20205;-53
2024/02/25 01:01:14;;;;;;;14.57;6.50;;;1.10;99.90;;;;;;5038895;28;20609;-54
2024/02/25 01:03:43;;;;;;;13.90;6.40;;;1.20;99.90;;;;;;5030962;28;20275;-52
2024/02/25 01:06:10;;;;;;;12.40;5.77;;;1.20;99.90;;;;;;5047159;28;20241;-51
2024/02/25 01:08:38;;;;;;;11.00;5.70;;;1.20;99.90;;;;;;5030292;28;20672;-51
2024/02/25 01:11:06;;;;;;;12.70;5.57;;;1.20;99.90;;;;;;5047208;28;20187;-53
2024/02/25 01:13:32;;;;;;;13.93;5.50;;;1.20;99.90;;;;;;5037170;28;20597;-51
2024/02/25 01:16:02;;;;;;;10.97;5.47;;;1.20;99.90;;;;;;5031799;28;20184;-50
2024/02/25 01:18:28;;;;;;;13.07;6.03;;;1.20;99.90;;;;;;5030067;28;20230;-51
2024/02/25 01:20:53;;;;;;;13.20;6.17;;;1.10;99.90;;;;;;5038670;28;20197;-51
2024/02/25 01:23:19;;;;;;;14.90;6.27;;;1.10;99.90;;;;;;5030365;28;20208;-54
2024/02/25 01:25:45;;;;;;;11.07;5.43;;;1.00;99.90;;;;;;5038556;28;20180;-52
2024/02/25 01:28:10;;;;;;;11.40;5.03;;;1.00;99.90;;;;;;5038209;28;20203;-51
2024/02/25 01:30:36;;;;;;;11.83;5.30;;;0.90;99.90;;;;;;5030320;28;20206;-51
2024/02/25 01:33:01;;;;;;;11.20;5.40;;;1.00;99.90;;;;;;5038378;28;20577;-54
2024/02/25 01:35:27;;;;;;;10.57;5.30;;;1.10;99.90;;;;;;5030134;28;20568;-56
2024/02/25 01:37:52;;;;;;;10.63;5.73;;;1.10;99.90;;;;;;5029387;28;20206;-55
2024/02/25 01:40:18;;;;;;;12.83;5.57;;;1.20;99.90;;;;;;5030273;28;20266;-53
2024/02/25 01:42:43;;;;;;;9.97;5.20;;;1.30;99.90;;;;;;5038125;28;20294;-52
2024/02/25 01:45:09;;;;;;;11.20;5.63;;;1.30;99.90;;;;;;5038187;28;20199;-51
2024/02/25 01:47:35;;;;;;;15.80;5.90;;;1.30;99.90;;;;;;5029398;28;20194;-53
2024/02/25 01:50:00;;;;;;;13.37;6.30;;;1.40;99.90;;;;;;5030063;28;20187;-50
2024/02/25 01:52:27;;;;;;;12.97;5.60;;;1.40;99.90;;;;;;5029794;28;20321;-52
2024/02/25 01:54:53;;;;;;;12.40;5.97;;;1.40;99.90;;;;;;5047332;28;20678;-54
2024/02/25 01:57:20;;;;;;;15.50;6.07;;;1.40;99.90;;;;;;5044388;28;20655;-52
2024/02/25 01:59:46;;;;;;;12.50;6.10;;;1.40;99.90;;;;;;5030063;28;20183;-56
2024/02/25 02:02:15;;;;;;;16.63;6.03;;;1.40;99.90;;;;;;5040172;28;20248;-51
2024/02/25 02:04:41;;;;;;;13.17;5.43;;;1.40;99.90;;;;;;5041543;28;20221;-51
2024/02/25 02:07:09;;;;;;;11.80;6.07;;;1.50;99.90;;;;;;5032400;28;20261;-51
2024/02/25 02:09:35;;;;;;;15.63;7.47;;;1.50;99.90;;;;;;5041310;28;20235;-50
2024/02/25 02:12:01;;;;;;;15.47;6.53;;;1.50;99.90;;;;;;5030775;28;20283;-51
2024/02/25 02:14:27;;;;;;;13.57;6.80;;;1.50;99.90;;;;;;5043549;28;20541;-53
2024/02/25 02:16:52;;;;;;;12.73;6.17;;;1.50;99.90;;;;;;5039550;28;20183;-51
2024/02/25 02:19:18;;;;;;;13.00;6.53;;;1.50;99.90;;;;;;5038079;28;20195;-54
2024/02/25 02:21:43;;;;;;;16.37;5.73;;;1.50;99.90;;;;;;5029626;28;20211;-50
2024/02/25 02:24:09;;;;;;;9.63;5.70;;;1.70;99.90;;;;;;5029498;28;20183;-52
2024/02/25 02:26:35;;;;;;;11.90;5.80;;;1.70;99.90;;;;;;5044472;28;20182;-52
2024/02/25 02:29:00;;;;;;;12.43;5.43;;;1.70;99.90;;;;;;5038384;28;20207;-53
2024/02/25 02:31:26;;;;;;;12.40;5.87;;;1.70;99.90;;;;;;5029443;28;20196;-50
2024/02/25 02:33:52;;;;;;;16.70;6.63;;;1.60;99.90;;;;;;5037592;28;20188;-53
2024/02/25 02:36:17;;;;;;;14.00;6.47;;;1.60;99.90;;;;;;5029385;28;20591;-51
2024/02/25 02:38:43;;;;;;;17.70;6.70;;;1.50;99.90;;;;;;5036919;28;20270;-51
2024/02/25 02:41:10;;;;;;;11.97;5.70;;;1.50;99.90;;;;;;5032486;28;20536;-51
2024/02/25 02:43:36;;;;;;;9.53;5.20;;;1.60;99.90;;;;;;5034133;28;20196;-50
2024/02/25 02:46:02;;;;;;;10.60;5.30;;;1.50;99.90;;;;;;5028996;28;20209;-53
2024/02/25 02:48:28;;;;;;;11.30;5.10;;;1.50;99.90;;;;;;5042974;28;20328;-50
2024/02/25 02:50:53;;;;;;;13.23;4.80;;;1.70;99.90;;;;;;5031494;28;20671;-51
2024/02/25 02:53:19;;;;;;;10.77;5.73;;;1.70;99.90;;;;;;5033973;28;20282;-51
2024/02/25 02:55:45;;;;;;;15.63;5.23;;;1.80;99.90;;;;;;5033048;28;20180;-53
2024/02/25 02:58:11;;;;;;;13.00;5.63;;;1.70;99.90;;;;;;5028764;28;20247;-51
2024/02/25 03:00:36;;;;;;;15.27;5.43;;;1.60;99.90;;;;;;5036204;28;20666;-54
2024/02/25 03:03:02;;;;;;;11.27;5.97;;;1.60;99.90;;;;;;5040662;28;20258;-50
2024/02/25 03:05:28;;;;;;;11.90;5.20;;;1.60;99.90;;;;;;5037880;28;20179;-51
2024/02/25 03:07:53;;;;;;;11.10;5.87;;;1.70;99.90;;;;;;5040681;28;20258;-51
2024/02/25 03:10:20;;;;;;;9.13;5.30;;;1.80;99.90;;;;;;5043259;28;20565;-54
2024/02/25 03:12:46;;;;;;;13.53;5.80;;;1.70;99.90;;;;;;5036487;28;20188;-50
2024/02/25 03:15:12;;;;;;;10.50;5.13;;;1.80;99.90;;;;;;5032885;28;20267;-51
2024/02/25 03:17:41;;;;;;;10.70;5.83;;;1.80;99.90;;;;;;5032571;28;20176;-51
2024/02/25 03:20:08;;;;;;;11.93;5.40;;;1.90;99.90;;;;;;5043714;28;20672;-52
2024/02/25 03:22:34;;;;;;;16.23;5.43;;;2.00;99.90;;;;;;5038195;28;20257;-52
2024/02/25 03:24:59;;;;;;;13.63;5.13;;;2.00;99.90;;;;;;5040743;28;20685;-51
2024/02/25 03:27:25;;;;;;;11.63;4.97;;;2.10;99.90;;;;;;5037407;28;20191;-53
2024/02/25 03:29:51;;;;;;;12.10;5.03;;;2.10;99.90;;;;;;5035366;28;20238;-51
2024/02/25 03:32:16;;;;;;;11.00;4.40;;;2.00;99.90;;;;;;5040873;28;20211;-52
2024/02/25 03:34:42;;;;;;;9.37;4.60;;;2.20;99.90;;;;;;5032546;28;20195;-51
2024/02/25 03:37:07;;;;;;;11.13;4.77;;;2.20;99.90;;;;;;5040221;28;20222;-53
2024/02/25 03:39:33;;;;;;;11.83;5.80;;;2.20;99.90;;;;;;5032502;28;20270;-51
2024/02/25 03:41:58;;;;;;;11.27;5.47;;;2.20;99.90;;;;;;5033830;28;20292;-52
2024/02/25 03:44:26;;;;;;;10.53;5.00;;;2.20;99.90;;;;;;5038759;28;20204;-52
2024/02/25 03:46:51;;;;;;;8.80;4.47;;;2.20;99.90;;;;;;5048271;28;20183;-57
2024/02/25 03:49:17;;;;;;;10.37;5.17;;;2.20;99.90;;;;;;5036488;28;20681;-52
2024/02/25 03:51:43;;;;;;;10.60;4.47;;;2.30;99.90;;;;;;5044092;28;20206;-51
2024/02/25 03:54:09;;;;;;;13.30;4.33;;;2.30;99.90;;;;;;5035556;28;20229;-51
2024/02/25 03:56:35;;;;;;;8.20;4.13;;;2.40;99.90;;;;;;5036783;28;20172;-52
2024/02/25 03:59:00;;;;;;;12.27;5.40;;;2.50;99.90;;;;;;5039727;28;20207;-50
2024/02/25 04:01:26;;;;;;;12.23;5.37;;;2.40;99.90;;;;;;5040229;28;20196;-53
2024/02/25 04:03:52;;;;;;;9.90;4.53;;;2.40;99.90;;;;;;5040840;28;20194;-53
2024/02/25 04:06:17;;;;;;;8.23;4.30;;;2.40;99.90;;;;;;5043789;28;20677;-51
2024/02/25 04:08:43;;;;;;;9.67;4.27;;;2.40;99.90;;;;;;5035362;28;20210;-56
2024/02/25 04:11:08;;;;;;;7.53;3.93;;;2.40;99.90;;;;;;5048003;28;20179;-52
2024/02/25 04:13:34;;;;;;;8.77;4.60;;;2.50;99.90;;;;;;5031815;28;20238;-56
2024/02/25 04:15:59;;;;;;;10.80;4.40;;;2.60;99.90;;;;;;5048161;28;20187;-52
2024/02/25 04:18:25;;;;;;;14.47;5.33;;;2.60;99.90;;;;;;5031304;28;20183;-51
2024/02/25 04:20:50;;;;;;;10.87;5.10;;;2.60;99.90;;;;;;5032314;28;20278;-51
2024/02/25 04:23:16;;;;;;;7.77;4.50;;;2.50;99.90;;;;;;5021493;28;20203;-52
2024/02/25 04:25:42;;;;;;;9.60;4.43;;;2.40;99.90;;;;;;5031465;28;20183;-53
2024/02/25 04:28:07;;;;;;;8.50;4.00;;;2.50;99.90;;;;;;5039132;28;20493;-54
2024/02/25 04:30:33;;;;;;;9.10;3.70;;;2.50;99.90;;;;;;5038118;28;20670;-50
2024/02/25 04:32:59;;;;;;;9.10;4.10;;;2.50;99.90;;;;;;5042914;28;20198;-52
2024/02/25 04:35:26;;;;;;;7.73;4.10;;;2.50;99.90;;;;;;5038040;28;20184;-52
2024/02/25 04:37:52;;;;;;;9.53;4.30;;;2.50;99.90;;;;;;5047196;28;20193;-54
2024/02/25 04:40:18;;;;;;;8.27;4.43;;;2.50;99.90;;;;;;5043824;28;20191;-51
2024/02/25 04:42:44;;;;;;;13.10;4.90;;;2.50;99.90;;;;;;5051072;28;20235;-52
2024/02/25 04:45:10;;;;;;;5.27;3.23;;;2.50;99.90;;;;;;5039534;28;20249;-51
2024/02/25 04:47:36;;;;;;;4.93;3.07;;;2.70;99.90;;;;;;5045494;28;20597;-51
2024/02/25 04:50:05;;;;;;;5.83;2.53;;;2.70;99.90;;;;;;5032772;28;20699;-52
2024/02/25 04:52:31;;;;;;;2.90;1.97;;;2.80;99.90;;;;;;5037002;28;20249;-54
2024/02/25 04:54:56;;;;;;;5.57;2.60;;;2.90;99.90;;;;;;5042512;28;20179;-53
2024/02/25 04:57:23;;;;;;;8.53;2.97;;;2.90;99.90;;;;;;5050248;28;20184;-51
2024/02/25 04:59:48;;;;;;;7.47;3.03;;;3.10;99.90;;;;;;5042481;28;20176;-52
2024/02/25 05:02:14;;;;;;;6.30;2.47;;;3.20;99.90;;;;;;5050830;28;20278;-51
2024/02/25 05:04:40;;;;;;;6.00;2.60;;;3.20;99.90;;;;;;5035363;28;20198;-52
2024/02/25 05:07:05;;;;;;;4.93;2.60;;;3.30;99.90;;;;;;5038152;28;20211;-51
2024/02/25 05:09:31;;;;;;;4.20;2.27;;;3.40;99.90;;;;;;5044954;28;20242;-51
2024/02/25 05:11:57;;;;;;;5.97;2.80;;;3.50;99.90;;;;;;5050304;28;20694;-55
2024/02/25 05:14:22;;;;;;;3.87;2.37;;;3.50;99.90;;;;;;5042236;28;20674;-51
2024/02/25 05:16:51;;;;;;;6.03;2.63;;;3.60;99.90;;;;;;5041884;28;20172;-52
2024/02/25 05:19:17;;;;;;;4.93;2.30;;;3.60;99.90;;;;;;5051133;28;20202;-51
2024/02/25 05:21:43;;;;;;;5.87;2.30;;;3.60;99.90;;;;;;5042812;28;20250;-54
2024/02/25 05:24:09;;;;;;;6.17;2.30;;;3.70;99.90;;;;;;5030378;28;20226;-51
2024/02/25 05:26:34;;;;;;;3.40;2.00;;;3.60;99.90;;;;;;5044804;28;20187;-53
2024/02/25 05:29:00;;;;;;;4.40;2.23;;;3.60;99.90;;;;;;5039702;28;20557;-51
2024/02/25 05:31:26;;;;;;;3.73;2.07;;;3.60;99.90;;;;;;5038702;28;20634;-54
2024/02/25 05:33:51;;;;;;;5.40;2.20;;;3.70;99.90;;;;;;5039097;28;20264;-56
2024/02/25 05:36:20;;;;;;;5.33;2.13;;;3.80;99.90;;;;;;5041854;28;20554;-54
2024/02/25 05:38:46;;;;;;;5.17;1.90;;;3.80;99.90;;;;;;5033377;28;20188;-55
2024/02/25 05:41:12;;;;;;;3.43;1.90;;;3.80;99.90;;;;;;5038257;28;20538;-54
2024/02/25 05:43:38;;;;;;;6.83;2.10;;;3.80;99.90;;;;;;5045159;28;20213;-51
2024/02/25 05:46:03;;;;;;;2.73;1.70;;;3.80;99.90;;;;;;5049732;28;20179;-55
2024/02/25 05:48:29;;;;;;;8.20;2.50;;;3.80;99.90;;;;;;5044011;28;20216;-51
2024/02/25 05:50:55;;;;;;;2.67;1.67;;;3.80;99.90;;;;;;5039503;28;20180;-51
2024/02/25 05:53:20;;;;;;;4.17;2.00;;;3.80;99.90;;;;;;5049887;28;20578;-53
2024/02/25 05:55:47;;;;;;;4.67;1.70;;;3.70;99.90;;;;;;5038781;28;20545;-52
2024/02/25 05:58:13;;;;;;;3.80;2.07;;;3.70;99.90;;;;;;5048835;28;20309;-54
2024/02/25 06:00:39;;;;;;;3.27;1.80;;;3.80;99.90;;;;;;5049952;28;20744;-55
2024/02/25 06:03:05;;;;;;;4.27;1.90;;;3.80;99.90;;;;;;5033166;28;20215;-54
2024/02/25 06:05:30;;;;;;;2.83;1.50;;;3.80;99.90;;;;;;5035635;28;20187;-52
2024/02/25 06:08:00;;;;;;;3.33;2.03;;;3.80;99.90;;;;;;5045718;28;20199;-54
2024/02/25 06:10:26;;;;;;;2.40;1.60;;;3.80;99.90;;;;;;5029547;28;20180;-55
2024/02/25 06:12:52;;;;;;;3.37;1.50;;;3.80;99.90;;;;;;5029914;28;20631;-51
2024/02/25 06:15:18;;;;;;;3.63;2.03;;;3.70;99.90;;;;;;5045655;28;20183;-56
2024/02/25 06:17:44;;;;;;;4.07;1.90;;;3.60;99.90;;;;;;5036904;28;20567;-51
2024/02/25 06:20:10;;;;;;;3.10;1.60;;;3.70;99.90;;;;;;5049461;28;20179;-53
2024/02/25 06:22:37;;;;;;;3.63;1.70;;;3.70;99.90;;;;;;5049799;28;20284;-53
2024/02/25 06:25:04;;;;;;;2.10;1.20;;;3.70;99.90;;;;;;5039083;28;20215;-52
2024/02/25 06:27:30;;;;;;;3.30;1.57;;;3.60;99.90;;;;;;5034439;28;20179;-53
2024/02/25 06:29:56;;;;;;;3.00;1.40;;;3.70;99.90;;;;;;5031847;28;20195;-51
2024/02/25 06:32:21;;;;;;;2.90;1.47;;;3.60;99.90;;;;;;5034069;28;20276;-52
2024/02/25 06:34:47;;;;;;;3.83;1.70;;;3.60;99.90;;;;;;5031345;28;20258;-57
2024/02/25 06:37:14;;;;;;;4.20;1.73;;;3.80;99.90;;;;;;5028822;28;20190;-55
2024/02/25 06:39:40;;;;;;;3.00;1.50;;;3.70;99.90;;;;;;5030977;28;20195;-55
2024/02/25 06:42:06;;;;;;;4.07;2.10;;;3.70;99.90;;;;;;5041448;28;20215;-52
2024/02/25 06:44:31;;;;;;;2.83;1.43;;;3.70;99.90;;;;;;5032607;28;20746;-55
2024/02/25 06:46:57;;;;;;;1.90;1.57;;;3.70;99.90;;;;;;5031729;28;20183;-50
2024/02/25 06:49:22;;;;;;;3.20;1.67;;;3.80;99.90;;;;;;5034971;28;20221;-52
2024/02/25 06:51:48;;;;;;;2.67;1.40;;;3.80;99.90;;;;;;5036065;28;20207;-54
2024/02/25 06:54:14;;;;;;;5.13;1.40;;;3.90;99.90;;;;;;5036289;28;20209;-50
2024/02/25 06:56:40;;;;;;;10.87;2.70;;;3.80;99.90;;;;;;5052237;28;20178;-55
2024/02/25 06:59:05;;;;;;;5.30;1.63;;;3.70;99.90;;;;;;5043532;28;20318;-55
2024/02/25 07:01:31;;;;;;;2.07;1.43;;;3.70;99.90;;;;;;5046868;28;20214;-55
2024/02/25 07:03:56;;;;;;;11.23;4.37;;;3.70;99.90;;;;;;5033550;28;20203;-54
2024/02/25 07:06:22;;;;;;;3.43;2.10;;;3.70;99.90;;;;;;5047771;28;20219;-51
2024/02/25 07:08:48;;;;;;;4.67;1.80;;;3.70;99.90;;;;;;5040047;28;20207;-52
2024/02/25 07:11:17;;;;;;;4.83;2.00;;;3.70;99.90;;;;;;5040497;28;20180;-51
2024/02/25 07:13:44;;;;;;;3.50;2.30;;;3.80;99.90;;;;;;5032201;28;20660;-54
2024/02/25 07:16:09;;;;;;;3.23;2.07;;;3.80;99.90;;;;;;5043244;28;20183;-54
2024/02/25 07:18:35;;;;;;;4.53;2.53;;;3.80;99.90;;;;;;5043457;28;20256;-55
2024/02/25 07:21:00;;;;;;;4.33;2.30;;;3.90;99.90;;;;;;5033870;28;20599;-52
2024/02/25 07:23:26;;;;;;;5.57;2.00;;;3.90;99.90;;;;;;5032204;28;20207;-52
2024/02/25 07:25:52;;;;;;;3.60;2.10;;;4.00;99.90;;;;;;5031603;28;20188;-55
2024/02/25 07:28:17;;;;;;;5.10;2.37;;;4.10;99.90;;;;;;5043698;28;20301;-52
2024/02/25 07:30:43;;;;;;;4.40;2.63;;;4.20;99.90;;;;;;5036886;28;20257;-53
2024/02/25 07:33:09;;;;;;;7.13;2.57;;;4.30;99.90;;;;;;5031646;28;20252;-51
2024/02/25 07:35:35;;;;;;;6.80;2.33;;;4.30;99.90;;;;;;5040057;28;20202;-54
2024/02/25 07:38:01;;;;;;;6.00;2.67;;;4.40;99.90;;;;;;5039292;28;20203;-50
2024/02/25 07:40:26;;;;;;;9.40;3.73;;;4.50;99.90;;;;;;5040150;28;20284;-51
2024/02/25 07:42:52;;;;;;;9.37;5.47;;;4.50;99.90;;;;;;5031723;28;20204;-53
2024/02/25 07:45:17;;;;;;;11.37;5.87;;;4.50;99.90;;;;;;5031738;28;20394;-54
2024/02/25 07:47:43;;;;;;;8.47;4.63;;;4.60;99.90;;;;;;5038685;28;20199;-53
2024/02/25 07:50:09;;;;;;;7.27;3.87;;;4.60;99.90;;;;;;5048379;28;20191;-53
2024/02/25 07:52:34;;;;;;;4.97;3.00;;;4.50;99.90;;;;;;5039850;28;20651;-51
2024/02/25 07:55:00;;;;;;;8.73;3.30;;;4.60;99.90;;;;;;5041087;28;20255;-51
2024/02/25 07:57:27;;;;;;;6.00;3.07;;;4.60;99.90;;;;;;5045669;28;20183;-55
2024/02/25 07:59:52;;;;;;;16.70;11.17;;;4.60;99.90;;;;;;5048162;28;20187;-52
2024/02/25 08:02:18;;;;;;;13.97;7.50;;;4.60;99.90;;;;;;5047223;28;20548;-51
2024/02/25 08:04:44;;;;;;;12.33;7.07;;;4.70;99.90;;;;;;5046992;28;20179;-54
2024/02/25 08:07:09;;;;;;;7.97;5.57;;;4.80;99.90;;;;;;5039758;28;20250;-53
2024/02/25 08:09:35;;;;;;;8.97;4.87;;;4.80;99.90;;;;;;5037255;28;20241;-52
2024/02/25 08:12:01;;;;;;;6.50;3.83;;;4.80;99.90;;;;;;5041010;28;20204;-53
2024/02/25 08:14:26;;;;;;;8.60;4.33;;;4.90;99.90;;;;;;5044450;28;20180;-54
2024/02/25 08:16:52;;;;;;;8.17;4.50;;;5.00;99.90;;;;;;5041988;28;20183;-57
2024/02/25 08:19:17;;;;;;;8.30;4.60;;;5.00;99.90;;;;;;5047088;28;20275;-51
2024/02/25 08:21:43;;;;;;;7.53;3.10;;;5.10;99.90;;;;;;5030939;28;20595;-53
2024/02/25 08:24:09;;;;;;;4.97;3.20;;;5.30;99.90;;;;;;5030588;28;20187;-51
2024/02/25 08:26:35;;;;;;;5.33;3.30;;;5.40;99.90;;;;;;5036652;28;20218;-51
2024/02/25 08:29:00;;;;;;;5.50;3.10;;;5.60;99.90;;;;;;5040349;28;20199;-53
2024/02/25 08:31:26;;;;;;;7.33;3.60;;;5.80;99.90;;;;;;5038945;28;20217;-54
2024/02/25 08:33:51;;;;;;;6.93;4.30;;;5.70;99.90;;;;;;5030439;28;20184;-51
2024/02/25 08:36:17;;;;;;;5.23;2.40;;;5.90;99.90;;;;;;5034328;28;20203;-52
2024/02/25 08:38:43;;;;;;;7.93;3.57;;;5.80;99.90;;;;;;5034604;28;20196;-52
2024/02/25 08:41:08;;;;;;;6.50;3.20;;;5.80;99.90;;;;;;5030303;28;20188;-57
2024/02/25 08:43:34;;;;;;;5.80;2.80;;;5.90;99.90;;;;;;5030427;28;20682;-52
2024/02/25 08:46:01;;;;;;;12.00;5.80;;;6.00;99.90;;;;;;5048174;28;20189;-53
2024/02/25 08:48:27;;;;;;;3.17;1.80;;;6.10;99.90;;;;;;5036231;28;20253;-51
2024/02/25 08:50:53;;;;;;;4.70;2.30;;;6.00;99.90;;;;;;5030443;28;20187;-53
2024/02/25 08:53:19;;;;;;;5.70;3.50;;;6.10;99.90;;;;;;5046259;28;20207;-51
2024/02/25 08:55:45;;;;;;;2.87;2.07;;;6.20;99.90;;;;;;5030188;28;20677;-55
2024/02/25 08:58:10;;;;;;;4.20;2.40;;;6.10;99.90;;;;;;5032302;28;20187;-51
2024/02/25 09:00:36;;;;;;;2.70;1.60;;;6.30;99.90;;;;;;5043873;28;20209;-54
2024/02/25 09:03:02;;;;;;;2.20;1.57;;;6.40;99.90;;;;;;5038982;28;20206;-51
2024/02/25 09:05:27;;;;;;;2.03;1.60;;;6.50;99.90;;;;;;5036911;28;20272;-55
2024/02/25 09:07:53;;;;;;;2.90;1.60;;;6.40;99.90;;;;;;5037487;28;20257;-52
2024/02/25 09:10:19;;;;;;;1.77;1.27;;;6.40;99.90;;;;;;5034147;28;20187;-55
2024/02/25 09:12:47;;;;;;;3.03;1.40;;;6.50;99.90;;;;;;5041790;28;20184;-52
2024/02/25 09:15:19;;;;;;;1.97;1.50;;;6.60;99.90;;;;;;5029931;28;20226;-52
2024/02/25 09:17:45;;;;;;;3.93;1.40;;;6.70;99.90;;;;;;5036709;28;20179;-57
2024/02/25 09:20:11;;;;;;;14.27;1.83;;;6.70;99.90;;;;;;5038558;28;20210;-53
2024/02/25 09:22:36;;;;;;;1.77;1.10;;;6.80;99.90;;;;;;5036094;28;20195;-51
2024/02/25 09:25:03;;;;;;;2.07;1.43;;;6.80;99.90;;;;;;5041198;28;20226;-51
2024/02/25 09:27:29;;;;;;;1.50;1.33;;;6.80;99.90;;;;;;5043581;28;20263;-54
2024/02/25 09:29:55;;;;;;;2.17;1.40;;;6.90;99.90;;;;;;5045906;28;20206;-54
2024/02/25 09:32:21;;;;;;;2.23;1.37;;;6.80;99.90;;;;;;5041903;28;20202;-51
2024/02/25 09:34:46;;;;;;;2.67;1.33;;;6.70;99.90;;;;;;5041207;28;20187;-51
2024/02/25 09:37:12;;;;;;;1.97;1.30;;;6.90;99.90;;;;;;5040583;28;20198;-51
2024/02/25 09:39:37;;;;;;;4.53;1.90;;;7.10;99.90;;;;;;5049498;28;20267;-52
2024/02/25 09:42:06;;;;;;;1.67;1.37;;;7.30;99.90;;;;;;5040880;28;20207;-51
2024/02/25 09:44:33;;;;;;;2.17;1.37;;;7.10;99.90;;;;;;5049037;28;20191;-52
2024/02/25 09:46:59;;;;;;;3.03;1.60;;;6.90;99.90;;;;;;5039369;28;20210;-50
2024/02/25 09:49:27;;;;;;;2.63;1.30;;;6.90;99.90;;;;;;5042085;28;20207;-51
2024/02/25 09:51:55;;;;;;;3.17;1.30;;;7.00;99.90;;;;;;5041053;28;20314;-51
2024/02/25 09:54:21;;;;;;;1.90;1.40;;;7.10;99.90;;;;;;5036931;28;20266;-51
2024/02/25 09:56:50;;;;;;;3.47;1.50;;;7.00;99.90;;;;;;5044465;28;20695;-53
2024/02/25 09:59:18;;;;;;;4.23;1.30;;;7.10;99.90;;;;;;5049106;28;20269;-51
2024/02/25 10:01:47;;;;;;;1.50;1.17;;;7.80;99.90;;;;;;5040986;28;20213;-53
2024/02/25 10:04:13;;;;;;;3.53;1.30;;;8.30;99.90;;;;;;5040686;28;20202;-52
2024/02/25 10:06:42;;;;;;;2.83;1.30;;;9.00;99.90;;;;;;5040103;28;20548;-52
2024/02/25 10:09:10;;;;;;;1.73;1.17;;;9.00;99.90;;;;;;5045943;28;20292;-51
2024/02/25 10:11:35;;;;;;;3.40;1.30;;;9.30;99.90;;;;;;5028734;28;20204;-50
2024/02/25 10:14:01;;;;;;;1.70;0.90;;;9.80;99.90;;;;;;5028821;28;20187;-52
2024/02/25 10:16:27;;;;;;;1.67;0.90;;;9.90;99.90;;;;;;5041784;28;20187;-51
2024/02/25 10:18:53;;;;;;;3.50;0.90;;;10.10;99.90;;;;;;5047880;28;20202;-53
2024/02/25 10:21:19;;;;;;;4.10;1.00;;;10.50;99.90;;;;;;5040617;28;20175;-52
2024/02/25 10:23:44;;;;;;;1.17;0.90;;;10.90;99.90;;;;;;5033175;28;20350;-54
2024/02/25 10:26:11;;;;;;;3.47;1.17;;;10.90;99.90;;;;;;5031185;28;20187;-50
2024/02/25 10:28:36;;;;;;;3.47;1.47;;;11.40;99.90;;;;;;5039536;28;20560;-53
2024/02/25 10:31:08;;;;;;;2.50;1.30;;;11.20;99.90;;;;;;5048556;28;20182;-52
2024/02/25 10:33:33;;;;;;;1.67;1.10;;;10.70;99.90;;;;;;5042710;28;20694;-52
2024/02/25 10:36:09;;;;;;;3.87;1.30;;;10.60;99.90;;;;;;5010182;28;20199;-51
2024/02/25 10:38:39;;;;;;;2.13;1.40;;;10.10;99.90;;;;;;5033977;28;20183;-53
2024/02/25 10:41:06;;;;;;;3.50;1.67;;;10.20;99.90;;;;;;5039959;28;20246;-54
2024/02/25 10:43:34;;;;;;;1.90;1.10;;;10.40;99.90;;;;;;5040246;28;20543;-51
2024/02/25 10:46:05;;;;;;;4.73;2.80;;;10.10;99.90;;;;;;5030422;28;20183;-50
2024/02/25 10:48:31;;;;;;;2.53;1.20;;;10.00;99.90;;;;;;5028013;28;20207;-52
2024/02/25 10:50:59;;;;;;;2.73;1.70;;;9.80;99.90;;;;;;5028209;28;20218;-52
2024/02/25 10:53:28;;;;;;;2.47;1.43;;;9.70;99.90;;;;;;5036404;28;20199;-53
2024/02/25 10:55:58;;;;;;;1.30;0.90;;;9.10;99.90;;;;;;5036840;28;20190;-54
2024/02/25 10:58:28;;;;;;;1.47;1.10;;;8.80;99.90;;;;;;5048203;28;20258;-56
2024/02/25 11:00:54;;;;;;;2.07;1.20;;;8.70;99.90;;;;;;5040298;28;20186;-55
2024/02/25 11:03:21;;;;;;;1.70;0.97;;;8.60;99.90;;;;;;5039506;28;20203;-53
2024/02/25 11:05:47;;;;;;;1.50;1.00;;;8.30;99.90;;;;;;5039747;28;20241;-56
2024/02/25 11:08:32;;;;;;;2.07;1.10;;;8.40;99.90;;;;;;5039152;28;20203;-57
2024/02/25 11:11:01;;;;;;;2.33;1.00;;;8.50;99.90;;;;;;5038899;28;20608;-50
2024/02/25 11:13:26;;;;;;;1.17;0.80;;;8.60;99.90;;;;;;5028162;28;20231;-54
2024/02/25 11:15:56;;;;;;;1.83;1.00;;;8.90;99.90;;;;;;5044804;28;20639;-58
2024/02/25 11:18:26;;;;;;;1.47;1.07;;;9.00;99.90;;;;;;5039997;28;20620;-53
2024/02/25 11:21:08;;;;;;;1.57;0.80;;;9.10;99.90;;;;;;5048022;28;21077;-53
2024/02/25 11:23:44;;;;;;;2.47;1.20;;;8.80;99.90;;;;;;5042321;28;20222;-52
2024/02/25 11:26:34;;;;;;;1.57;1.10;;;8.70;99.90;;;;;;5039232;28;20170;-56
2024/02/25 11:29:18;;;;;;;2.20;0.93;;;8.70;99.90;;;;;;5039353;28;20203;-54
2024/02/25 11:31:57;;;;;;;1.30;1.00;;;8.40;99.90;;;;;;5038874;28;20274;-56
2024/02/25 11:34:28;;;;;;;2.17;0.90;;;8.80;99.90;;;;;;5035703;28;20595;-56
2024/02/25 11:36:58;;;;;;;2.47;0.90;;;9.40;99.90;;;;;;5034430;28;20187;-56
2024/02/25 11:39:28;;;;;;;1.37;0.70;;;9.70;99.90;;;;;;5013754;28;20200;-56
2024/02/25 11:41:59;;;;;;;1.10;0.70;;;9.80;99.90;;;;;;5031455;28;20258;-56
2024/02/25 11:44:26;;;;;;;0.87;0.70;;;9.70;99.90;;;;;;5031398;28;20651;-54
2024/02/25 11:46:57;;;;;;;1.30;0.70;;;9.70;99.90;;;;;;5030835;28;20180;-55
2024/02/25 11:49:25;;;;;;;0.67;0.60;;;9.50;99.90;;;;;;5035379;28;20202;-54
2024/02/25 11:51:51;;;;;;;1.63;0.60;;;9.30;99.90;;;;;;5034689;28;20278;-51
2024/02/25 11:54:17;;;;;;;2.50;0.77;;;9.00;99.90;;;;;;5039223;28;20183;-54
2024/02/25 11:56:42;;;;;;;2.10;0.90;;;9.00;99.90;;;;;;5030938;28;20183;-52
2024/02/25 11:59:08;;;;;;;1.30;0.87;;;8.90;99.90;;;;;;5034038;28;20743;-52
2024/02/25 12:01:36;;;;;;;1.43;0.80;;;8.70;99.90;;;;;;5027016;28;20616;-51
2024/02/25 12:04:02;;;;;;;2.70;0.77;;;8.70;99.90;;;;;;5041480;28;20252;-53
2024/02/25 12:06:32;;;;;;;1.57;0.70;;;8.70;99.90;;;;;;5030784;28;20663;-53
2024/02/25 12:09:07;;;;;;;1.03;0.60;;;8.50;99.90;;;;;;5038908;28;20215;-55
2024/02/25 12:11:34;;;;;;;2.23;0.93;;;8.40;99.90;;;;;;5031144;28;20203;-52
2024/02/25 12:14:04;;;;;;;0.77;0.63;;;8.40;99.90;;;;;;5044426;28;20390;-51
2024/02/25 12:16:30;;;;;;;0.80;0.60;;;8.40;99.90;;;;;;5024480;28;20179;-51
2024/02/25 12:18:58;;;;;;;0.90;0.60;;;8.60;99.90;;;;;;5043779;28;20630;-54
2024/02/25 12:21:25;;;;;;;2.17;0.80;;;8.60;99.90;;;;;;5038004;28;20690;-51
2024/02/25 12:23:57;;;;;;;1.63;0.70;;;8.70;99.90;;;;;;5036152;28;20675;-53
2024/02/25 12:26:23;;;;;;;3.30;1.10;;;8.80;99.90;;;;;;5034123;28;20196;-55
2024/02/25 12:28:48;;;;;;;3.40;0.73;;;8.90;99.90;;;;;;5038488;28;20252;-53
2024/02/25 12:31:14;;;;;;;1.27;0.80;;;9.10;99.90;;;;;;5041525;28;20194;-52
2024/02/25 12:33:40;;;;;;;3.23;0.80;;;9.30;99.90;;;;;;5057078;28;20477;-54
2024/02/25 12:36:06;;;;;;;1.40;0.60;;;9.50;99.90;;;;;;5043386;28;20207;-51
2024/02/25 12:38:31;;;;;;;1.53;1.20;;;9.80;99.90;;;;;;5043866;28;20530;-51
2024/02/25 12:41:01;;;;;;;0.80;0.70;;;10.00;99.90;;;;;;5039070;28;20183;-51
2024/02/25 12:43:27;;;;;;;1.63;0.67;;;10.30;99.90;;;;;;5037239;28;20216;-52
2024/02/25 12:45:53;;;;;;;1.50;0.70;;;10.90;99.90;;;;;;5038483;28;20194;-55
2024/02/25 12:48:20;;;;;;;0.67;0.50;;;11.20;99.90;;;;;;5038151;28;20314;-54